• Join FlightAware (Why Join?)
  • Login
  • US Flag 
09:30PM EDT


 

Airport Tracker/Info


-or-


 

Live Flight TrackerFlight Track Log ✈ N8711K ✈ 08-May-2013 ✈ KLJF - KFAR

Flight Track Log - Related Links

Times and Time Zones

All times are in EDT time to prevent confusion due to time zone crossing. See the N8711K flight status page for this flight to view local times or setup timezone preferences in your user account.

Time Position Orientation Groundspeed Altitude Reporting Facility
EDT Latitude Longitude Course Direction KTS MPH feet Rate Location/Type
05:01PM 45.1431 -94.5583 319° Northwest 126 145 2,800  Level Minneapolis Center
05:02PM 45.1708 -94.5950 317° Northwest 136 157 3,500 900 Climbing Minneapolis Center
05:03PM 45.1997 -94.6325 318° Northwest 140 161 4,700 1,020 Climbing Minneapolis Center
05:04PM 45.2358 -94.6747 321° Northwest 147 169 5,700 660 Climbing Minneapolis Center
05:05PM 45.3081 -94.7715 319° Northwest  Level FlightAware Approximate
05:05PM 45.2706 -94.7181 319° Northwest 159 183 6,100  Level Minneapolis Center
05:06PM 45.3453 -94.8173 319° Northwest  Level FlightAware Approximate
05:06PM 45.3133 -94.7717 319° Northwest 179 206 6,100  Level Minneapolis Center
05:07PM 45.3825 -94.8632 319° Northwest  Level FlightAware Approximate
05:07PM 45.3600 -94.8281 320° Northwest 192 221 6,000  Level Minneapolis Center
05:08PM 45.4014 -94.8778 320° Northwest 195 224 6,100  Climbing Minneapolis Center
05:10PM 45.4372 -94.9217 319° Northwest 195 224 6,100 -60 Level Minneapolis Center
05:11PM 45.4858 -94.9825 319° Northwest 194 223 6,000  Descending Minneapolis Center
05:12PM 45.5278 -95.0339 319° Northwest 198 228 6,100  Climbing Minneapolis Center
05:13PM 45.5656 -95.0817 318° Northwest 198 228 6,100  Level Minneapolis Center
05:14PM 45.6228 -95.1536 319° Northwest 197 227 6,100 -60 Level Minneapolis Center
05:15PM 45.6642 -95.2042 320° Northwest 197 227 6,000 -60 Descending Minneapolis Center
05:16PM 45.7058 -95.2567 319° Northwest 198 228 6,000  Level Minneapolis Center
05:17PM 45.7464 -95.3069 319° Northwest 197 227 6,100  Climbing Minneapolis Center
05:18PM 45.7786 -95.3467 319° Northwest 195 224 6,000  Descending Minneapolis Center
05:19PM 45.8361 -95.4175 319° Northwest 195 224 6,100  Climbing Minneapolis Center
05:20PM 45.8772 -95.4703 318° Northwest 195 224 6,000 -60 Descending Minneapolis Center
05:21PM 45.9197 -95.5228 319° Northwest 194 223 6,000  Level Minneapolis Center
05:23PM 45.9720 -95.5873 319° Northwest  Level FlightAware Approximate
05:28PM 46.1894 -95.8675 317° Northwest 293 337 6,000  Level Minneapolis Center
05:29PM 46.2300 -95.9189 319° Northwest 189 217 6,100  Climbing Minneapolis Center
05:30PM 46.2330 -95.9117 319° Northwest  Level FlightAware Approximate
05:30PM 46.2731 -95.9711 320° Northwest 193 222 6,100  Level Minneapolis Center
05:31PM 46.2702 -95.9583 319° Northwest  Level FlightAware Approximate
05:31PM 46.3131 -96.0236 318° Northwest 187 215 6,000  Level Minneapolis Center
05:32PM 46.3074 -96.0050 319° Northwest  Level FlightAware Approximate
05:32PM 46.3544 -96.0747 320° Northwest 187 215 6,000  Level Minneapolis Center
05:33PM 46.3439 -96.0528 318° Northwest  Level FlightAware Approximate
05:33PM 46.3856 -96.1161 317° Northwest 188 216 6,100  Level Minneapolis Center
05:34PM 46.3801 -96.1010 317° Northwest  Level FlightAware Approximate
05:34PM 46.4342 -96.1811 317° Northwest 186 214 6,100  Level Minneapolis Center
05:35PM 46.4719 -96.2292 319° Northwest 188 216 6,000  Descending Minneapolis Center
05:36PM 46.5083 -96.2864 313° West 187 215 6,100  Climbing Minneapolis Center
05:37PM 46.5442 -96.3458 311° West 188 216 6,000 -360 Descending Minneapolis Center
05:38PM 46.5794 -96.4061 310° West 188 216 5,400 -540 Descending Minneapolis Center
05:39PM 46.6161 -96.4697 310° West 197 227 4,900 -480 Descending Minneapolis Center
05:40PM 46.6519 -96.5297 311° West 190 219 4,500 -300 Descending Minneapolis Center
05:41PM 46.6825 -96.5853 309° West 185 213 4,300 -300 Descending Minneapolis Center
05:42PM 46.7117 -96.6331 312° West 180 207 4,000 -300 Descending Minneapolis Center
05:43PM 46.7522 -96.6997 312° West 182 209 3,700 -300 Descending Minneapolis Center
05:44PM 46.7917 -96.7511 318° Northwest 182 209 3,400 -540 Descending Minneapolis Center
05:45PM 46.8267 -96.8008 316° Northwest 170 196 2,700 -780 Descending Minneapolis Center
05:47PM 46.8664 -96.8178 344° North 146 168 1,900 -780 Descending Minneapolis Center
05:48PM 46.9050 -96.8172 North 138 159 1,200 -720 Descending Minneapolis Center